sensor_id;sensor_type;location;lat;lon;timestamp;P1;durP1;ratioP1;P2;durP2;ratioP2
47513;SDS011;33951;51.988;5.910;2022-10-16T05:01:34;5.22;;;3.40;;
47513;SDS011;33951;51.988;5.910;2022-10-16T05:04:00;6.07;;;3.63;;
47513;SDS011;33951;51.988;5.910;2022-10-16T05:06:34;4.55;;;3.30;;
47513;SDS011;33951;51.988;5.910;2022-10-16T05:09:07;5.03;;;3.38;;
47513;SDS011;33951;51.988;5.910;2022-10-16T05:11:45;7.45;;;4.13;;
47513;SDS011;33951;51.988;5.910;2022-10-16T05:14:16;6.28;;;3.60;;
47513;SDS011;33951;51.988;5.910;2022-10-16T06:11:53;7.13;;;3.95;;
47513;SDS011;33951;51.988;5.910;2022-10-16T06:17:30;8.65;;;4.40;;
47513;SDS011;33951;51.988;5.910;2022-10-16T06:20:26;7.47;;;4.03;;
47513;SDS011;33951;51.988;5.910;2022-10-16T06:23:17;6.93;;;4.47;;
47513;SDS011;33951;51.988;5.910;2022-10-16T06:25:46;9.15;;;5.05;;
47513;SDS011;33951;51.988;5.910;2022-10-16T06:28:17;7.45;;;5.10;;
47513;SDS011;33951;51.988;5.910;2022-10-16T06:31:07;9.65;;;6.32;;
47513;SDS011;33951;51.988;5.910;2022-10-16T06:33:43;6.38;;;4.43;;
47513;SDS011;33951;51.988;5.910;2022-10-16T06:36:34;6.50;;;4.75;;
47513;SDS011;33951;51.988;5.910;2022-10-16T06:39:20;8.05;;;4.95;;
47513;SDS011;33951;51.988;5.910;2022-10-16T06:41:46;9.85;;;5.47;;
47513;SDS011;33951;51.988;5.910;2022-10-16T06:44:33;15.43;;;5.32;;
47513;SDS011;33951;51.988;5.910;2022-10-16T06:47:28;9.20;;;6.22;;
47513;SDS011;33951;51.988;5.910;2022-10-16T06:50:36;10.50;;;4.95;;
47513;SDS011;33951;51.988;5.910;2022-10-16T07:07:49;8.63;;;4.00;;
47513;SDS011;33951;51.988;5.910;2022-10-16T07:24:58;5.15;;;3.67;;
47513;SDS011;33951;51.988;5.910;2022-10-16T07:31:24;7.68;;;4.35;;
47513;SDS011;33951;51.988;5.910;2022-10-16T09:50:30;8.80;;;2.88;;
47513;SDS011;33951;51.988;5.910;2022-10-16T10:00:28;11.93;;;3.75;;
47513;SDS011;33951;51.988;5.910;2022-10-16T10:06:35;11.67;;;2.67;;
47513;SDS011;33951;51.988;5.910;2022-10-16T10:13:55;12.80;;;3.92;;
47513;SDS011;33951;51.988;5.910;2022-10-16T10:26:37;11.27;;;2.92;;
47513;SDS011;33951;51.988;5.910;2022-10-16T10:34:04;13.85;;;3.75;;
47513;SDS011;33951;51.988;5.910;2022-10-16T10:36:50;12.68;;;3.08;;
47513;SDS011;33951;51.988;5.910;2022-10-16T10:39:57;16.98;;;3.38;;
47513;SDS011;33951;51.988;5.910;2022-10-16T10:43:03;9.45;;;3.83;;
47513;SDS011;33951;51.988;5.910;2022-10-16T10:48:53;11.60;;;2.83;;
47513;SDS011;33951;51.988;5.910;2022-10-16T11:01:50;14.52;;;4.13;;
47513;SDS011;33951;51.988;5.910;2022-10-16T11:07:16;11.63;;;2.75;;
47513;SDS011;33951;51.988;5.910;2022-10-16T11:10:17;11.80;;;3.40;;
47513;SDS011;33951;51.988;5.910;2022-10-16T11:16:34;12.05;;;2.97;;
47513;SDS011;33951;51.988;5.910;2022-10-16T11:22:00;13.95;;;2.92;;
47513;SDS011;33951;51.988;5.910;2022-10-16T11:24:50;10.95;;;2.30;;
47513;SDS011;33951;51.988;5.910;2022-10-16T11:27:40;14.68;;;3.08;;
47513;SDS011;33951;51.988;5.910;2022-10-16T11:33:30;14.85;;;3.00;;
47513;SDS011;33951;51.988;5.910;2022-10-16T11:42:11;11.18;;;3.03;;
47513;SDS011;33951;51.988;5.910;2022-10-16T11:47:54;13.98;;;3.45;;
47513;SDS011;33951;51.988;5.910;2022-10-16T11:50:53;11.73;;;3.08;;
47513;SDS011;33951;51.988;5.910;2022-10-16T11:54:01;11.80;;;2.95;;
47513;SDS011;33951;51.988;5.910;2022-10-16T11:56:51;15.13;;;3.90;;
47513;SDS011;33951;51.988;5.910;2022-10-16T11:59:31;14.27;;;3.03;;
47513;SDS011;33951;51.988;5.910;2022-10-16T12:10:40;13.65;;;3.47;;
47513;SDS011;33951;51.988;5.910;2022-10-16T12:16:24;8.55;;;2.47;;
47513;SDS011;33951;51.988;5.910;2022-10-16T12:21:42;9.18;;;3.03;;
47513;SDS011;33951;51.988;5.910;2022-10-16T12:34:05;10.73;;;2.78;;
47513;SDS011;33951;51.988;5.910;2022-10-16T12:36:49;13.07;;;2.63;;
47513;SDS011;33951;51.988;5.910;2022-10-16T12:39:40;10.75;;;3.20;;
47513;SDS011;33951;51.988;5.910;2022-10-16T12:42:33;13.35;;;4.40;;
47513;SDS011;33951;51.988;5.910;2022-10-16T12:52:23;9.77;;;2.65;;
47513;SDS011;33951;51.988;5.910;2022-10-16T12:55:42;12.25;;;3.47;;
47513;SDS011;33951;51.988;5.910;2022-10-16T13:46:20;10.82;;;3.00;;
47513;SDS011;33951;51.988;5.910;2022-10-16T13:49:01;10.75;;;2.50;;
47513;SDS011;33951;51.988;5.910;2022-10-16T13:51:36;12.73;;;3.05;;
47513;SDS011;33951;51.988;5.910;2022-10-16T13:54:10;10.07;;;2.63;;
47513;SDS011;33951;51.988;5.910;2022-10-16T13:56:39;10.43;;;2.95;;
47513;SDS011;33951;51.988;5.910;2022-10-16T14:02:00;9.75;;;2.55;;
47513;SDS011;33951;51.988;5.910;2022-10-16T14:04:47;13.20;;;4.03;;
47513;SDS011;33951;51.988;5.910;2022-10-16T14:07:14;13.15;;;2.90;;
47513;SDS011;33951;51.988;5.910;2022-10-16T14:09:47;13.55;;;3.17;;
47513;SDS011;33951;51.988;5.910;2022-10-16T14:12:16;15.27;;;3.05;;
47513;SDS011;33951;51.988;5.910;2022-10-16T14:14:46;12.02;;;3.22;;
47513;SDS011;33951;51.988;5.910;2022-10-16T14:17:32;10.20;;;2.47;;
47513;SDS011;33951;51.988;5.910;2022-10-16T14:20:04;13.18;;;3.47;;
47513;SDS011;33951;51.988;5.910;2022-10-16T14:22:35;8.75;;;2.72;;
47513;SDS011;33951;51.988;5.910;2022-10-16T14:27:58;13.18;;;2.90;;
47513;SDS011;33951;51.988;5.910;2022-10-16T14:31:00;10.90;;;3.00;;
47513;SDS011;33951;51.988;5.910;2022-10-16T14:33:41;8.07;;;2.83;;
47513;SDS011;33951;51.988;5.910;2022-10-16T14:42:20;13.27;;;3.30;;
47513;SDS011;33951;51.988;5.910;2022-10-16T14:48:32;11.82;;;2.60;;
47513;SDS011;33951;51.988;5.910;2022-10-16T14:50:58;6.93;;;2.40;;
47513;SDS011;33951;51.988;5.910;2022-10-16T14:53:23;8.73;;;2.60;;
47513;SDS011;33951;51.988;5.910;2022-10-16T14:55:52;10.27;;;2.55;;
47513;SDS011;33951;51.988;5.910;2022-10-16T14:58:23;8.75;;;2.72;;
47513;SDS011;33951;51.988;5.910;2022-10-16T15:00:56;9.00;;;2.75;;
47513;SDS011;33951;51.988;5.910;2022-10-16T15:03:27;7.38;;;2.88;;
47513;SDS011;33951;51.988;5.910;2022-10-16T15:05:53;8.75;;;3.00;;
47513;SDS011;33951;51.988;5.910;2022-10-16T15:08:28;11.35;;;4.28;;
47513;SDS011;33951;51.988;5.910;2022-10-16T15:10:56;14.57;;;3.55;;
47513;SDS011;33951;51.988;5.910;2022-10-16T15:13:25;14.70;;;5.55;;
47513;SDS011;33951;51.988;5.910;2022-10-16T15:19:04;14.02;;;6.07;;
47513;SDS011;33951;51.988;5.910;2022-10-16T15:21:37;11.60;;;5.43;;
47513;SDS011;33951;51.988;5.910;2022-10-16T15:24:12;16.25;;;4.82;;
47513;SDS011;33951;51.988;5.910;2022-10-16T15:26:43;10.48;;;3.20;;
47513;SDS011;33951;51.988;5.910;2022-10-16T15:29:11;11.75;;;2.90;;
47513;SDS011;33951;51.988;5.910;2022-10-16T15:31:50;14.45;;;4.80;;
47513;SDS011;33951;51.988;5.910;2022-10-16T15:34:18;15.07;;;5.77;;
47513;SDS011;33951;51.988;5.910;2022-10-16T15:36:44;10.95;;;3.95;;
47513;SDS011;33951;51.988;5.910;2022-10-16T15:39:25;16.88;;;4.80;;
47513;SDS011;33951;51.988;5.910;2022-10-16T15:41:54;13.38;;;5.50;;
47513;SDS011;33951;51.988;5.910;2022-10-16T15:44:35;10.88;;;3.30;;
47513;SDS011;33951;51.988;5.910;2022-10-16T15:47:17;13.68;;;5.35;;
47513;SDS011;33951;51.988;5.910;2022-10-16T15:52:46;16.08;;;4.95;;
47513;SDS011;33951;51.988;5.910;2022-10-16T16:01:46;11.30;;;3.78;;
47513;SDS011;33951;51.988;5.910;2022-10-16T16:42:08;9.18;;;3.75;;
47513;SDS011;33951;51.988;5.910;2022-10-16T16:55:55;27.45;;;13.48;;
47513;SDS011;33951;51.988;5.910;2022-10-16T16:59:12;14.25;;;6.82;;
47513;SDS011;33951;51.988;5.910;2022-10-16T17:22:43;13.68;;;7.30;;
47513;SDS011;33951;51.988;5.910;2022-10-16T17:32:34;18.00;;;10.02;;
47513;SDS011;33951;51.988;5.910;2022-10-16T19:45:56;10.05;;;6.38;;
47513;SDS011;33951;51.988;5.910;2022-10-16T19:48:34;15.30;;;7.70;;
47513;SDS011;33951;51.988;5.910;2022-10-16T19:51:04;19.08;;;10.25;;
47513;SDS011;33951;51.988;5.910;2022-10-16T19:54:16;22.10;;;11.13;;
47513;SDS011;33951;51.988;5.910;2022-10-16T19:57:15;14.07;;;10.27;;
47513;SDS011;33951;51.988;5.910;2022-10-16T19:59:50;17.95;;;10.30;;
47513;SDS011;33951;51.988;5.910;2022-10-16T20:02:29;19.40;;;8.60;;
47513;SDS011;33951;51.988;5.910;2022-10-16T20:05:43;16.85;;;9.18;;
47513;SDS011;33951;51.988;5.910;2022-10-16T20:08:50;15.40;;;10.20;;
47513;SDS011;33951;51.988;5.910;2022-10-16T20:11:55;18.38;;;9.60;;
47513;SDS011;33951;51.988;5.910;2022-10-16T20:14:33;18.85;;;9.45;;
47513;SDS011;33951;51.988;5.910;2022-10-16T20:17:24;16.10;;;9.10;;
47513;SDS011;33951;51.988;5.910;2022-10-16T20:20:13;16.90;;;8.65;;
47513;SDS011;33951;51.988;5.910;2022-10-16T20:22:46;14.52;;;8.77;;
47513;SDS011;33951;51.988;5.910;2022-10-16T20:25:15;21.98;;;9.18;;
47513;SDS011;33951;51.988;5.910;2022-10-16T20:28:06;21.05;;;9.10;;
47513;SDS011;33951;51.988;5.910;2022-10-16T20:30:51;13.73;;;7.78;;
47513;SDS011;33951;51.988;5.910;2022-10-16T20:33:49;12.00;;;7.68;;
47513;SDS011;33951;51.988;5.910;2022-10-16T20:36:17;13.07;;;7.43;;
47513;SDS011;33951;51.988;5.910;2022-10-16T20:38:47;11.50;;;6.95;;
47513;SDS011;33951;51.988;5.910;2022-10-16T20:44:28;15.18;;;7.50;;
47513;SDS011;33951;51.988;5.910;2022-10-16T20:47:16;12.93;;;7.97;;
47513;SDS011;33951;51.988;5.910;2022-10-16T20:49:42;14.60;;;7.60;;
47513;SDS011;33951;51.988;5.910;2022-10-16T20:52:16;12.02;;;7.50;;
47513;SDS011;33951;51.988;5.910;2022-10-16T20:54:51;16.73;;;7.85;;
47513;SDS011;33951;51.988;5.910;2022-10-16T20:57:32;14.05;;;7.82;;
47513;SDS011;33951;51.988;5.910;2022-10-16T21:00:06;18.45;;;10.23;;
47513;SDS011;33951;51.988;5.910;2022-10-16T21:09:38;13.00;;;7.40;;
47513;SDS011;33951;51.988;5.910;2022-10-16T21:19:06;9.90;;;6.80;;
47513;SDS011;33951;51.988;5.910;2022-10-16T21:24:46;14.50;;;7.10;;
47513;SDS011;33951;51.988;5.910;2022-10-16T21:27:40;10.30;;;6.45;;
47513;SDS011;33951;51.988;5.910;2022-10-16T21:30:24;8.13;;;6.38;;
47513;SDS011;33951;51.988;5.910;2022-10-16T21:36:33;12.88;;;7.15;;
47513;SDS011;33951;51.988;5.910;2022-10-16T21:39:32;12.95;;;8.27;;
47513;SDS011;33951;51.988;5.910;2022-10-16T21:45:34;9.30;;;6.82;;
47513;SDS011;33951;51.988;5.910;2022-10-16T21:48:14;9.25;;;6.53;;
47513;SDS011;33951;51.988;5.910;2022-10-16T21:51:06;11.27;;;6.85;;
47513;SDS011;33951;51.988;5.910;2022-10-16T21:53:51;11.43;;;6.50;;
47513;SDS011;33951;51.988;5.910;2022-10-16T21:56:37;10.32;;;5.80;;
47513;SDS011;33951;51.988;5.910;2022-10-16T21:59:27;9.73;;;6.60;;
47513;SDS011;33951;51.988;5.910;2022-10-16T22:02:14;15.10;;;6.32;;
47513;SDS011;33951;51.988;5.910;2022-10-16T22:05:01;8.93;;;6.25;;
47513;SDS011;33951;51.988;5.910;2022-10-16T22:07:58;12.32;;;6.75;;
47513;SDS011;33951;51.988;5.910;2022-10-16T22:10:45;10.55;;;6.55;;
47513;SDS011;33951;51.988;5.910;2022-10-16T22:13:33;10.98;;;6.53;;
47513;SDS011;33951;51.988;5.910;2022-10-16T22:16:32;10.45;;;6.22;;
47513;SDS011;33951;51.988;5.910;2022-10-16T22:19:42;11.27;;;6.65;;
47513;SDS011;33951;51.988;5.910;2022-10-16T22:43:03;8.98;;;6.55;;
47513;SDS011;33951;51.988;5.910;2022-10-16T22:53:10;11.15;;;7.50;;
47513;SDS011;33951;51.988;5.910;2022-10-16T22:56:36;9.32;;;8.20;;
47513;SDS011;33951;51.988;5.910;2022-10-16T22:59:53;13.48;;;7.85;;
47513;SDS011;33951;51.988;5.910;2022-10-16T23:06:38;9.60;;;7.30;;
47513;SDS011;33951;51.988;5.910;2022-10-16T23:09:58;8.75;;;7.35;;
47513;SDS011;33951;51.988;5.910;2022-10-16T23:20:03;12.43;;;8.48;;
47513;SDS011;33951;51.988;5.910;2022-10-16T23:29:41;12.10;;;9.07;;
47513;SDS011;33951;51.988;5.910;2022-10-16T23:33:10;10.35;;;7.78;;
47513;SDS011;33951;51.988;5.910;2022-10-16T23:36:42;15.13;;;9.88;;
47513;SDS011;33951;51.988;5.910;2022-10-16T23:40:09;14.73;;;9.63;;
47513;SDS011;33951;51.988;5.910;2022-10-16T23:43:36;11.52;;;8.88;;
